createdAt,value
2023-03-18T00:00:40.828Z,0.00
2023-03-18T00:01:40.836Z,0.00
2023-03-18T00:02:40.912Z,0.00
2023-03-18T00:03:40.862Z,0.00
2023-03-18T00:04:40.789Z,0.00
2023-03-18T00:05:40.781Z,0.00
2023-03-18T00:06:40.762Z,0.00
2023-03-18T00:07:40.783Z,0.00
2023-03-18T00:08:40.746Z,0.00
2023-03-18T00:09:40.739Z,0.00
2023-03-18T00:10:40.745Z,0.00
2023-03-18T00:11:40.712Z,0.00
2023-03-18T00:12:40.701Z,0.00
2023-03-18T00:13:40.694Z,0.00
2023-03-18T00:14:40.679Z,0.00
2023-03-18T00:15:40.726Z,0.00
2023-03-18T00:16:40.655Z,0.00
2023-03-18T00:17:40.672Z,0.00
2023-03-18T00:18:40.667Z,0.00
2023-03-18T00:19:40.625Z,0.00
2023-03-18T00:20:40.632Z,0.00
2023-03-18T00:21:40.603Z,0.00
2023-03-18T00:22:40.594Z,0.00
2023-03-18T00:23:40.620Z,0.00
2023-03-18T00:24:40.570Z,0.00
2023-03-18T00:25:40.618Z,0.00
2023-03-18T00:26:40.570Z,0.00
2023-03-18T00:27:40.536Z,0.00
2023-03-18T00:28:40.525Z,0.00
2023-03-18T00:29:40.518Z,0.00
2023-03-18T00:30:40.524Z,0.00
2023-03-18T00:31:40.550Z,0.00
2023-03-18T00:32:40.522Z,0.00
2023-03-18T00:33:40.510Z,0.00
2023-03-18T00:34:40.464Z,0.00
2023-03-18T00:35:40.489Z,0.00
2023-03-18T00:36:40.438Z,0.00
2023-03-18T00:37:40.454Z,0.00
2023-03-18T00:38:40.415Z,0.00
2023-03-18T00:39:40.405Z,0.00
2023-03-18T00:40:40.405Z,0.00
2023-03-18T00:41:40.413Z,0.00
2023-03-18T00:42:40.407Z,0.00
2023-03-18T00:43:40.407Z,0.00
2023-03-18T00:44:40.383Z,0.00
2023-03-18T00:45:40.348Z,0.00
2023-03-18T00:46:40.397Z,0.00
2023-03-18T00:47:40.348Z,0.00
2023-03-18T00:48:40.320Z,0.00
2023-03-18T00:49:40.346Z,0.00
2023-03-18T00:50:40.292Z,0.00
2023-03-18T00:51:40.284Z,0.00
2023-03-18T00:52:40.289Z,0.00
2023-03-18T00:53:40.259Z,0.00
2023-03-18T00:54:40.282Z,0.00
2023-03-18T00:55:40.266Z,0.00
2023-03-18T00:56:40.256Z,0.00
2023-03-18T00:57:40.235Z,0.00
2023-03-18T00:58:40.201Z,0.00
2023-03-18T00:59:40.193Z,0.00
2023-03-18T01:00:40.238Z,0.00
2023-03-18T01:01:40.189Z,0.00
2023-03-18T01:02:40.160Z,0.00
2023-03-18T01:03:40.168Z,0.00
2023-03-18T01:04:40.139Z,0.00
2023-03-18T01:05:40.165Z,0.00
2023-03-18T01:06:40.141Z,0.00
2023-03-18T01:07:40.104Z,0.00
2023-03-18T01:08:40.118Z,0.00
2023-03-18T01:09:40.088Z,0.00
2023-03-18T01:10:40.089Z,0.00
2023-03-18T01:11:40.080Z,0.00
2023-03-18T01:12:40.112Z,0.00
2023-03-18T01:13:40.048Z,0.00
2023-03-18T01:14:40.046Z,0.00
2023-03-18T01:15:40.073Z,0.00
2023-03-18T01:16:40.109Z,0.00
2023-03-18T01:17:40.002Z,0.00
2023-03-18T01:18:40.004Z,0.00
2023-03-18T01:19:39.988Z,0.00
2023-03-18T01:20:40.005Z,0.00
2023-03-18T01:21:39.983Z,0.00
2023-03-18T01:22:39.947Z,0.00
2023-03-18T01:23:39.959Z,0.00
2023-03-18T01:24:39.924Z,0.00
2023-03-18T01:25:39.920Z,0.00
2023-03-18T01:26:39.910Z,0.00
2023-03-18T01:27:39.895Z,0.00
2023-03-18T01:28:39.903Z,0.00
2023-03-18T01:29:39.870Z,0.00
2023-03-18T01:30:39.868Z,0.00
2023-03-18T01:31:39.974Z,0.00
2023-03-18T01:32:39.882Z,0.00
2023-03-18T01:33:39.847Z,0.00
2023-03-18T01:34:39.819Z,0.00
2023-03-18T01:35:39.880Z,0.00
2023-03-18T01:36:39.805Z,0.00
2023-03-18T01:37:39.806Z,0.00
2023-03-18T01:38:39.790Z,0.00
2023-03-18T01:39:39.770Z,0.00
2023-03-18T01:40:39.773Z,0.00
2023-03-18T01:41:39.744Z,0.00
2023-03-18T01:42:39.729Z,0.00
2023-03-18T01:43:39.721Z,0.00
2023-03-18T01:44:39.709Z,0.00
2023-03-18T01:45:39.740Z,0.00
2023-03-18T01:46:39.684Z,0.00
2023-03-18T01:47:39.677Z,0.00
2023-03-18T01:48:39.672Z,0.00
2023-03-18T01:49:39.662Z,0.00
2023-03-18T01:50:39.656Z,0.00
2023-03-18T01:51:39.630Z,0.00
2023-03-18T01:52:39.620Z,0.00
2023-03-18T01:53:39.630Z,0.00
2023-03-18T01:54:39.612Z,0.00
2023-03-18T01:55:39.605Z,0.00
2023-03-18T01:56:39.579Z,0.00
2023-03-18T01:57:39.571Z,0.00
2023-03-18T01:58:39.557Z,0.00
2023-03-18T01:59:39.547Z,0.00
2023-03-18T02:00:39.551Z,0.00
2023-03-18T02:01:39.523Z,0.00
2023-03-18T02:02:39.512Z,0.00
2023-03-18T02:03:39.595Z,0.00
2023-03-18T02:04:39.490Z,0.00
2023-03-18T02:05:39.484Z,0.00
2023-03-18T02:06:39.474Z,0.00
2023-03-18T02:07:39.465Z,0.00
2023-03-18T02:08:39.489Z,0.00
2023-03-18T02:09:39.462Z,0.00
2023-03-18T02:10:39.457Z,0.00
2023-03-18T02:11:39.452Z,0.00
2023-03-18T02:12:39.447Z,0.00
2023-03-18T02:13:39.413Z,0.00
2023-03-18T02:14:39.403Z,0.00
2023-03-18T02:15:39.398Z,0.00
2023-03-18T02:16:39.476Z,0.00
2023-03-18T02:17:39.372Z,0.00
2023-03-18T02:18:39.353Z,0.00
2023-03-18T02:19:39.343Z,0.00
2023-03-18T02:20:39.346Z,0.00
2023-03-18T02:21:39.337Z,0.00
2023-03-18T02:22:39.328Z,0.00
2023-03-18T02:23:39.318Z,0.00
2023-03-18T02:24:39.277Z,0.00
2023-03-18T02:25:39.284Z,0.00
2023-03-18T02:26:39.257Z,0.00
2023-03-18T02:27:39.250Z,0.00
2023-03-18T02:28:39.294Z,0.00
2023-03-18T02:29:39.225Z,0.00
2023-03-18T02:30:39.294Z,0.00
2023-03-18T02:31:39.209Z,0.00
2023-03-18T02:32:39.228Z,0.00
2023-03-18T02:33:39.298Z,0.00
2023-03-18T02:34:39.191Z,0.00
2023-03-18T02:35:39.186Z,0.00
2023-03-18T02:36:39.156Z,0.00
2023-03-18T02:37:39.141Z,0.00
2023-03-18T02:38:39.153Z,0.00
2023-03-18T02:39:39.128Z,0.00
2023-03-18T02:40:39.108Z,0.00
2023-03-18T02:41:39.114Z,0.00
2023-03-18T02:42:39.084Z,0.00
2023-03-18T02:43:39.102Z,0.00
2023-03-18T02:44:39.064Z,0.00
2023-03-18T02:45:39.072Z,0.00
2023-03-18T02:46:39.042Z,0.00
2023-03-18T02:47:39.038Z,0.00
2023-03-18T02:48:39.027Z,0.00
2023-03-18T02:49:39.019Z,0.00
2023-03-18T02:50:41.832Z,0.00
2023-03-18T02:51:38.991Z,0.00
2023-03-18T02:52:38.980Z,0.00
2023-03-18T02:53:39.005Z,0.00
2023-03-18T02:54:38.961Z,0.00
2023-03-18T02:55:38.950Z,0.00
2023-03-18T02:56:38.955Z,0.00
2023-03-18T02:57:38.951Z,0.00
2023-03-18T02:58:38.961Z,0.00
2023-03-18T02:59:38.920Z,0.00
2023-03-18T03:00:38.896Z,0.00
2023-03-18T03:01:38.968Z,0.00
2023-03-18T03:02:38.967Z,0.00
2023-03-18T03:03:38.952Z,0.00
2023-03-18T03:04:38.857Z,0.00
2023-03-18T03:05:38.858Z,0.00
2023-03-18T03:06:38.833Z,0.00
2023-03-18T03:07:38.825Z,0.00
2023-03-18T03:08:38.823Z,0.00
2023-03-18T03:09:38.800Z,0.00
2023-03-18T03:10:38.790Z,0.00
2023-03-18T03:11:38.785Z,0.00
2023-03-18T03:12:38.768Z,0.00
2023-03-18T03:13:38.794Z,0.00
2023-03-18T03:14:38.745Z,0.00
2023-03-18T03:15:38.785Z,0.00
2023-03-18T03:16:38.728Z,0.00
2023-03-18T03:17:38.718Z,0.00
2023-03-18T03:18:38.749Z,0.00
2023-03-18T03:19:38.700Z,0.00
2023-03-18T03:20:38.687Z,0.00
2023-03-18T03:21:38.682Z,0.00
2023-03-18T03:22:38.666Z,0.00
2023-03-18T03:23:38.676Z,0.00
2023-03-18T03:24:38.640Z,0.00
2023-03-18T03:25:38.645Z,0.00
2023-03-18T03:26:38.617Z,0.00
2023-03-18T03:27:38.611Z,0.00
2023-03-18T03:28:38.640Z,0.00
2023-03-18T03:29:38.692Z,0.00
2023-03-18T03:30:38.575Z,0.00
2023-03-18T03:31:38.566Z,0.00
2023-03-18T03:32:38.599Z,0.00
2023-03-18T03:33:38.572Z,0.00
2023-03-18T03:34:38.540Z,0.00
2023-03-18T03:35:38.663Z,0.00
2023-03-18T03:36:38.518Z,0.00
2023-03-18T03:37:38.509Z,0.00
2023-03-18T03:38:38.549Z,0.00
2023-03-18T03:39:38.489Z,0.00
2023-03-18T03:40:38.471Z,0.00
2023-03-18T03:41:38.466Z,0.00
2023-03-18T03:42:38.448Z,0.00
2023-03-18T03:43:38.448Z,0.00
2023-03-18T03:44:38.447Z,0.00
2023-03-18T03:45:38.439Z,0.00
2023-03-18T03:46:38.435Z,0.00
2023-03-18T03:47:38.420Z,0.00
2023-03-18T03:48:38.449Z,0.00
2023-03-18T03:49:38.372Z,0.00
2023-03-18T03:50:38.362Z,0.00
2023-03-18T03:51:38.354Z,0.00
2023-03-18T03:52:38.340Z,0.00
2023-03-18T03:53:38.390Z,0.00
2023-03-18T03:54:38.320Z,0.00
2023-03-18T03:55:38.320Z,0.00
2023-03-18T03:56:38.301Z,0.00
2023-03-18T03:57:38.311Z,0.00
2023-03-18T03:58:38.374Z,0.00
2023-03-18T03:59:38.268Z,0.00
2023-03-18T04:00:38.251Z,0.00
2023-03-18T04:01:38.266Z,0.00
2023-03-18T04:02:38.273Z,0.00
2023-03-18T04:03:38.243Z,0.00
2023-03-18T04:04:38.211Z,0.00
2023-03-18T04:05:38.203Z,0.00
2023-03-18T04:06:38.190Z,0.00
2023-03-18T04:07:38.181Z,0.00
2023-03-18T04:08:38.185Z,0.00
2023-03-18T04:09:38.164Z,0.00
2023-03-18T04:10:38.148Z,0.00
2023-03-18T04:11:38.144Z,0.00
2023-03-18T04:12:38.124Z,0.00
2023-03-18T04:13:38.164Z,0.00
2023-03-18T04:14:38.105Z,0.00
2023-03-18T04:15:38.097Z,0.00
2023-03-18T04:16:38.086Z,0.00
2023-03-18T04:17:38.096Z,0.00
2023-03-18T04:18:38.067Z,0.00
2023-03-18T04:19:38.063Z,0.00
2023-03-18T04:20:38.054Z,0.00
2023-03-18T04:21:38.030Z,0.00
2023-03-18T04:22:38.022Z,0.00
2023-03-18T04:23:38.016Z,0.00
2023-03-18T04:24:38.009Z,0.00
2023-03-18T04:25:38.028Z,0.00
2023-03-18T04:26:37.987Z,0.00
2023-03-18T04:27:38.046Z,0.00
2023-03-18T04:28:37.996Z,0.00
2023-03-18T04:29:37.991Z,0.00
2023-03-18T04:30:37.945Z,0.00
2023-03-18T04:31:38.040Z,0.00
2023-03-18T04:32:37.983Z,0.00
2023-03-18T04:33:37.930Z,0.00
2023-03-18T04:34:37.907Z,0.00
2023-03-18T04:35:37.995Z,0.00
2023-03-18T04:36:37.870Z,0.00
2023-03-18T04:37:37.856Z,0.00
2023-03-18T04:38:37.850Z,0.00
2023-03-18T04:39:37.844Z,0.00
2023-03-18T04:40:37.828Z,0.00
2023-03-18T04:41:37.813Z,0.00
2023-03-18T04:42:37.805Z,0.00
2023-03-18T04:43:37.793Z,0.00
2023-03-18T04:44:37.808Z,0.00
2023-03-18T04:45:37.780Z,0.00
2023-03-18T04:46:37.793Z,0.00
2023-03-18T04:47:37.757Z,0.00
2023-03-18T04:48:37.764Z,0.00
2023-03-18T04:49:37.811Z,0.00
2023-03-18T04:50:37.723Z,4.00
2023-03-18T04:51:37.720Z,4.00
2023-03-18T04:52:37.697Z,4.00
2023-03-18T04:53:37.694Z,4.00
2023-03-18T04:54:37.717Z,0.00
2023-03-18T04:55:37.713Z,4.00
2023-03-18T04:56:37.663Z,4.00
2023-03-18T04:57:37.650Z,4.00
2023-03-18T04:58:37.639Z,8.00
2023-03-18T04:59:37.631Z,8.00
2023-03-18T05:00:37.720Z,8.00
2023-03-18T05:01:37.614Z,8.00
2023-03-18T05:02:37.592Z,8.00
2023-03-18T05:03:37.634Z,12.00
2023-03-18T05:04:37.602Z,12.00
2023-03-18T05:05:38.817Z,16.00
2023-03-18T05:06:37.554Z,20.00
2023-03-18T05:07:37.545Z,24.00
2023-03-18T05:08:37.528Z,28.00
2023-03-18T05:09:37.536Z,28.00
2023-03-18T05:10:37.506Z,32.00
2023-03-18T05:11:37.502Z,36.00
2023-03-18T05:12:37.485Z,40.00
2023-03-18T05:13:37.473Z,44.00
2023-03-18T05:14:37.489Z,52.00
2023-03-18T05:15:37.456Z,60.00
2023-03-18T05:16:37.495Z,64.00
2023-03-18T05:17:37.433Z,68.00
2023-03-18T05:18:37.426Z,80.00
2023-03-18T05:19:37.447Z,84.00
2023-03-18T05:20:37.402Z,92.00
2023-03-18T05:21:37.419Z,100.00
2023-03-18T05:22:37.377Z,112.00
2023-03-18T05:23:37.365Z,124.00
2023-03-18T05:24:37.405Z,136.00
2023-03-18T05:25:37.374Z,144.00
2023-03-18T05:26:37.336Z,156.00
2023-03-18T05:27:37.326Z,168.00
2023-03-18T05:28:37.319Z,180.00
2023-03-18T05:29:37.304Z,192.00
2023-03-18T05:30:37.315Z,208.00
2023-03-18T05:31:37.384Z,220.00
2023-03-18T05:32:37.304Z,236.00
2023-03-18T05:33:37.292Z,256.00
2023-03-18T05:34:37.267Z,272.00
2023-03-18T05:35:37.282Z,296.00
2023-03-18T05:36:37.228Z,320.00
2023-03-18T05:37:37.254Z,344.00
2023-03-18T05:38:37.213Z,364.00
2023-03-18T05:39:37.227Z,392.00
2023-03-18T05:40:37.193Z,412.00
2023-03-18T05:41:37.191Z,432.00
2023-03-18T05:42:46.069Z,448.00
2023-03-18T05:43:38.151Z,464.00
2023-03-18T05:44:37.155Z,476.00
2023-03-18T05:45:39.920Z,496.00
2023-03-18T05:46:37.122Z,516.00
2023-03-18T05:47:37.114Z,536.00
2023-03-18T05:48:37.100Z,564.00
2023-03-18T05:49:37.119Z,600.00
2023-03-18T05:50:37.076Z,632.00
2023-03-18T05:51:37.067Z,668.00
2023-03-18T05:52:37.056Z,704.00
2023-03-18T05:53:37.064Z,740.00
2023-03-18T05:54:37.061Z,772.00
2023-03-18T05:55:37.022Z,800.00
2023-03-18T05:56:37.018Z,832.00
2023-03-18T05:57:37.002Z,872.00
2023-03-18T05:58:36.992Z,904.00
2023-03-18T05:59:37.006Z,936.00
2023-03-18T06:00:36.987Z,964.00
2023-03-18T06:01:36.961Z,996.00
2023-03-18T06:02:36.990Z,1024.00
2023-03-18T06:03:36.989Z,1056.00
2023-03-18T06:04:36.930Z,1084.00
2023-03-18T06:05:36.960Z,1108.00
2023-03-18T06:06:36.908Z,1128.00
2023-03-18T06:07:36.905Z,1156.00
2023-03-18T06:08:36.890Z,1180.00
2023-03-18T06:09:36.912Z,1212.00
2023-03-18T06:10:36.890Z,1252.00
2023-03-18T06:11:36.867Z,1296.00
2023-03-18T06:12:36.844Z,1344.00
2023-03-18T06:13:36.844Z,1388.00
2023-03-18T06:14:36.832Z,1432.00
2023-03-18T06:15:36.833Z,1476.00
2023-03-18T06:16:36.848Z,1524.00
2023-03-18T06:17:36.794Z,1576.00
2023-03-18T06:18:36.784Z,1616.00
2023-03-18T06:19:36.771Z,1648.00
2023-03-18T06:20:36.778Z,1672.00
2023-03-18T06:21:36.747Z,1680.00
2023-03-18T06:22:36.742Z,1680.00
2023-03-18T06:23:36.728Z,1676.00
2023-03-18T06:24:36.738Z,1668.00
2023-03-18T06:25:36.723Z,1660.00
2023-03-18T06:26:36.696Z,1660.00
2023-03-18T06:27:36.683Z,1664.00
2023-03-18T06:28:36.674Z,1676.00
2023-03-18T06:29:36.681Z,1688.00
2023-03-18T06:30:36.650Z,1704.00
2023-03-18T06:31:36.640Z,1744.00
2023-03-18T06:32:36.671Z,1796.00
2023-03-18T06:33:36.619Z,1848.00
2023-03-18T06:34:36.620Z,1880.00
2023-03-18T06:35:36.608Z,1892.00
2023-03-18T06:36:36.584Z,1924.00
2023-03-18T06:37:36.578Z,1948.00
2023-03-18T06:38:36.566Z,1984.00
2023-03-18T06:39:36.574Z,1996.00
2023-03-18T06:40:36.563Z,1960.00
2023-03-18T06:41:36.549Z,1904.00
2023-03-18T06:42:36.531Z,1872.00
2023-03-18T06:43:36.514Z,1868.00
2023-03-18T06:44:36.505Z,1896.00
2023-03-18T06:45:36.501Z,1920.00
2023-03-18T06:46:36.527Z,1996.00
2023-03-18T06:47:36.485Z,2080.00
2023-03-18T06:48:36.457Z,2200.00
2023-03-18T06:49:36.443Z,2332.00
2023-03-18T06:50:36.475Z,2472.00
2023-03-18T06:51:36.421Z,2560.00
2023-03-18T06:52:36.410Z,2680.00
2023-03-18T06:53:36.423Z,2824.00
2023-03-18T06:54:36.422Z,2984.00
2023-03-18T06:55:36.375Z,3164.00
2023-03-18T06:56:36.366Z,3228.00
2023-03-18T06:57:36.375Z,3348.00
2023-03-18T06:58:36.374Z,3484.00
2023-03-18T06:59:36.386Z,3708.00
2023-03-18T07:00:36.370Z,3920.00
2023-03-18T07:01:36.331Z,4164.00
2023-03-18T07:02:38.995Z,4616.00
2023-03-18T07:03:36.292Z,5504.00
2023-03-18T07:04:36.333Z,6964.00
2023-03-18T07:05:36.270Z,7292.00
2023-03-18T07:06:36.281Z,5360.00
2023-03-18T07:07:36.244Z,6648.00
2023-03-18T07:08:36.240Z,6304.00
2023-03-18T07:09:36.254Z,7920.00
2023-03-18T07:10:36.224Z,8728.00
2023-03-18T07:11:36.201Z,8664.00
2023-03-18T07:12:36.190Z,9180.00
2023-03-18T07:13:36.377Z,8804.00
2023-03-18T07:14:36.250Z,8916.00
2023-03-18T07:15:36.351Z,9084.00
2023-03-18T07:16:36.150Z,9260.00
2023-03-18T07:17:36.136Z,10924.00
2023-03-18T07:18:36.133Z,10948.00
2023-03-18T07:19:36.139Z,10808.00
2023-03-18T07:20:36.105Z,12672.00
2023-03-18T07:21:36.095Z,12612.00
2023-03-18T07:22:36.081Z,12956.00
2023-03-18T07:23:36.075Z,11416.00
2023-03-18T07:24:36.080Z,10824.00
2023-03-18T07:25:36.079Z,13284.00
2023-03-18T07:26:36.039Z,14944.00
2023-03-18T07:27:36.027Z,14304.00
2023-03-18T07:28:36.021Z,16096.00
2023-03-18T07:29:36.056Z,13908.00
2023-03-18T07:30:36.000Z,11652.00
2023-03-18T07:31:36.004Z,12048.00
2023-03-18T07:32:35.992Z,11744.00
2023-03-18T07:33:35.965Z,12672.00
2023-03-18T07:34:36.061Z,15604.00
2023-03-18T07:35:36.321Z,17536.00
2023-03-18T07:36:35.933Z,15716.00
2023-03-18T07:37:35.949Z,17248.00
2023-03-18T07:38:35.919Z,17312.00
2023-03-18T07:39:35.912Z,18752.00
2023-03-18T07:40:35.886Z,19360.00
2023-03-18T07:41:37.774Z,16480.00
2023-03-18T07:42:35.865Z,18816.00
2023-03-18T07:43:35.852Z,21504.00
2023-03-18T07:44:35.861Z,20384.00
2023-03-18T07:45:35.856Z,21408.00
2023-03-18T07:46:35.904Z,21344.00
2023-03-18T07:47:35.809Z,21664.00
2023-03-18T07:48:35.906Z,18464.00
2023-03-18T07:49:35.788Z,19296.00
2023-03-18T07:50:35.806Z,21952.00
2023-03-18T07:51:35.804Z,24320.00
2023-03-18T07:52:35.796Z,24512.00
2023-03-18T07:53:35.742Z,25152.00
2023-03-18T07:54:35.736Z,26624.00
2023-03-18T07:55:35.732Z,28032.00
2023-03-18T07:56:35.712Z,27680.00
2023-03-18T07:57:35.700Z,33600.00
2023-03-18T07:58:35.716Z,36544.00
2023-03-18T07:59:35.681Z,34304.00
2023-03-18T08:00:35.734Z,30720.00
2023-03-18T08:01:35.680Z,35360.00
2023-03-18T08:02:35.648Z,32608.00
2023-03-18T08:03:35.687Z,36704.00
2023-03-18T08:04:35.717Z,17696.00
2023-03-18T08:05:35.632Z,17984.00
2023-03-18T08:06:35.606Z,32384.00
2023-03-18T08:07:35.605Z,40960.00
2023-03-18T08:08:35.585Z,30464.00
2023-03-18T08:09:35.570Z,33984.00
2023-03-18T08:10:35.577Z,37408.00
2023-03-18T08:11:35.559Z,38784.00
2023-03-18T08:12:51.277Z,37696.00
2023-03-18T08:13:36.531Z,36064.00
2023-03-18T08:14:35.524Z,40256.00
2023-03-18T08:15:35.554Z,42240.00
2023-03-18T08:16:35.543Z,47584.00
2023-03-18T08:17:35.522Z,47552.00
2023-03-18T08:18:35.471Z,42880.00
2023-03-18T08:19:35.467Z,34048.00
2023-03-18T08:20:35.474Z,42080.00
2023-03-18T08:21:35.460Z,46464.00
2023-03-18T08:22:35.431Z,44992.00
2023-03-18T08:23:35.423Z,34848.00
2023-03-18T08:24:35.414Z,36416.00
2023-03-18T08:25:35.785Z,37760.00
2023-03-18T08:26:35.412Z,44064.00
2023-03-18T08:27:35.375Z,48768.00
2023-03-18T08:28:35.371Z,46912.00
2023-03-18T08:29:35.358Z,51680.00
2023-03-18T08:30:35.362Z,41312.00
2023-03-18T08:31:35.429Z,36128.00
2023-03-18T08:32:35.466Z,38912.00
2023-03-18T08:33:35.340Z,38080.00
2023-03-18T08:34:35.356Z,43392.00
2023-03-18T08:35:35.326Z,39424.00
2023-03-18T08:36:35.297Z,48736.00
2023-03-18T08:37:35.283Z,49600.00
2023-03-18T08:38:35.279Z,41376.00
2023-03-18T08:39:35.295Z,43872.00
2023-03-18T08:40:35.283Z,31904.00
2023-03-18T08:41:35.232Z,20512.00
2023-03-18T08:42:35.217Z,24832.00
2023-03-18T08:43:36.808Z,29568.00
2023-03-18T08:44:35.194Z,19520.00
2023-03-18T08:45:35.642Z,24448.00
2023-03-18T08:46:35.175Z,29120.00
2023-03-18T08:47:35.168Z,21536.00
2023-03-18T08:48:35.174Z,15556.00
2023-03-18T08:49:35.168Z,17504.00
2023-03-18T08:50:35.160Z,16544.00
2023-03-18T08:51:35.139Z,15260.00
2023-03-18T08:52:35.114Z,11544.00
2023-03-18T08:53:35.106Z,10212.00
2023-03-18T08:54:35.091Z,12292.00
2023-03-18T08:55:35.617Z,12380.00
2023-03-18T08:56:35.069Z,20320.00
2023-03-18T08:57:35.062Z,14584.00
2023-03-18T08:58:35.047Z,19296.00
2023-03-18T08:59:35.049Z,12108.00
2023-03-18T09:00:35.062Z,12896.00
2023-03-18T09:01:35.080Z,12632.00
2023-03-18T09:02:35.006Z,10600.00
2023-03-18T09:03:35.036Z,11664.00
2023-03-18T09:04:34.979Z,12872.00
2023-03-18T09:05:35.449Z,12212.00
2023-03-18T09:06:42.947Z,14792.00
2023-03-18T09:07:34.953Z,12680.00
2023-03-18T09:08:34.968Z,11876.00
2023-03-18T09:09:43.602Z,10856.00
2023-03-18T09:10:36.171Z,12020.00
2023-03-18T09:11:34.944Z,13892.00
2023-03-18T09:12:34.890Z,15808.00
2023-03-18T09:13:35.053Z,14588.00
2023-03-18T09:14:34.876Z,17312.00
2023-03-18T09:15:35.302Z,17888.00
2023-03-18T09:16:34.907Z,15192.00
2023-03-18T09:17:50.969Z,19456.00
2023-03-18T09:18:35.827Z,28384.00
2023-03-18T09:19:34.818Z,43968.00
2023-03-18T09:20:34.866Z,50432.00
2023-03-18T09:21:34.829Z,44480.00
2023-03-18T09:22:34.788Z,39168.00
2023-03-18T09:23:34.793Z,36864.00
2023-03-18T09:24:34.815Z,38400.00
2023-03-18T09:25:35.099Z,33312.00
2023-03-18T09:26:34.745Z,17824.00
2023-03-18T09:27:34.757Z,34976.00
2023-03-18T09:28:34.731Z,33568.00
2023-03-18T09:29:34.716Z,24608.00
2023-03-18T09:30:34.765Z,32224.00
2023-03-18T09:31:34.693Z,34720.00
2023-03-18T09:32:34.711Z,36000.00
2023-03-18T09:33:34.674Z,48704.00
2023-03-18T09:34:34.649Z,43520.00
2023-03-18T09:35:35.175Z,43456.00
2023-03-18T09:36:34.629Z,44512.00
2023-03-18T09:37:34.643Z,46464.00
2023-03-18T09:38:34.611Z,42176.00
2023-03-18T09:39:34.598Z,45856.00
2023-03-18T09:40:36.244Z,46912.00
2023-03-18T09:41:34.582Z,40064.00
2023-03-18T09:42:34.571Z,47904.00
2023-03-18T09:43:34.558Z,48288.00
2023-03-18T09:44:34.564Z,52608.00
2023-03-18T09:45:34.656Z,50304.00
2023-03-18T09:46:34.669Z,53696.00
2023-03-18T09:47:34.517Z,53728.00
2023-03-18T09:48:34.512Z,55872.00
2023-03-18T09:49:34.516Z,58272.00
2023-03-18T09:50:34.550Z,59168.00
2023-03-18T09:51:34.509Z,61152.00
2023-03-18T09:52:34.459Z,60800.00
2023-03-18T09:53:34.491Z,53088.00
2023-03-18T09:54:34.436Z,48480.00
2023-03-18T09:55:34.582Z,62176.00
2023-03-18T09:56:34.416Z,61344.00
2023-03-18T09:57:34.406Z,57600.00
2023-03-18T09:58:34.408Z,66080.00
2023-03-18T09:59:34.392Z,59872.00
2023-03-18T10:00:34.486Z,58464.00
2023-03-18T10:01:34.411Z,61632.00
2023-03-18T10:02:34.352Z,62336.00
2023-03-18T10:03:34.348Z,57888.00
2023-03-18T10:04:34.335Z,53280.00
2023-03-18T10:05:34.869Z,68224.00
2023-03-18T10:06:34.324Z,52128.00
2023-03-18T10:07:34.301Z,31072.00
2023-03-18T10:08:36.205Z,27712.00
2023-03-18T10:09:34.309Z,48672.00
2023-03-18T10:10:34.301Z,60928.00
2023-03-18T10:11:34.261Z,59136.00
2023-03-18T10:12:34.257Z,57984.00
2023-03-18T10:13:34.249Z,55456.00
2023-03-18T10:14:36.198Z,58432.00
2023-03-18T10:15:34.616Z,58176.00
2023-03-18T10:16:34.216Z,56992.00
2023-03-18T10:17:34.202Z,53824.00
2023-03-18T10:18:34.187Z,49664.00
2023-03-18T10:19:34.191Z,53408.00
2023-03-18T10:20:34.186Z,55488.00
2023-03-18T10:21:34.181Z,55840.00
2023-03-18T10:22:34.152Z,52160.00
2023-03-18T10:23:34.151Z,53824.00
2023-03-18T10:24:34.137Z,49504.00
2023-03-18T10:25:34.595Z,47392.00
2023-03-18T10:26:34.119Z,48384.00
2023-03-18T10:27:34.097Z,49056.00
2023-03-18T10:28:34.088Z,46720.00
2023-03-18T10:29:34.085Z,34464.00
2023-03-18T10:30:34.101Z,17920.00
2023-03-18T10:31:34.213Z,30592.00
2023-03-18T10:32:48.621Z,28480.00
2023-03-18T10:33:35.057Z,48256.00
2023-03-18T10:34:34.043Z,51360.00
2023-03-18T10:35:34.481Z,50400.00
2023-03-18T10:36:34.022Z,46624.00
2023-03-18T10:37:33.997Z,51712.00
2023-03-18T10:38:33.985Z,46976.00
2023-03-18T10:39:33.980Z,42720.00
2023-03-18T10:40:33.990Z,40128.00
2023-03-18T10:41:33.984Z,18240.00
2023-03-18T10:42:33.944Z,30368.00
2023-03-18T10:43:33.935Z,24736.00
2023-03-18T10:44:33.925Z,16320.00
2023-03-18T10:45:34.353Z,14688.00
2023-03-18T10:46:34.009Z,13888.00
2023-03-18T10:47:33.983Z,13500.00
2023-03-18T10:48:33.886Z,13392.00
2023-03-18T10:49:33.874Z,12944.00
2023-03-18T10:50:34.482Z,13652.00
2023-03-18T10:51:33.853Z,12972.00
2023-03-18T10:52:33.844Z,12220.00
2023-03-18T10:53:33.833Z,11680.00
2023-03-18T10:54:33.821Z,11640.00
2023-03-18T10:55:33.823Z,12272.00
2023-03-18T10:56:33.799Z,12836.00
2023-03-18T10:57:33.817Z,12604.00
2023-03-18T10:58:33.789Z,11556.00
2023-03-18T10:59:33.777Z,10728.00
2023-03-18T11:00:34.115Z,10000.00
2023-03-18T11:01:33.791Z,9932.00
2023-03-18T11:02:33.772Z,10716.00
2023-03-18T11:03:33.739Z,10916.00
2023-03-18T11:04:33.717Z,10992.00
2023-03-18T11:05:34.293Z,10844.00
2023-03-18T11:06:33.701Z,10756.00
2023-03-18T11:07:33.693Z,10956.00
2023-03-18T11:08:33.685Z,10896.00
2023-03-18T11:09:33.673Z,10456.00
2023-03-18T11:10:34.024Z,9948.00
2023-03-18T11:11:33.637Z,9440.00
2023-03-18T11:12:33.627Z,8956.00
2023-03-18T11:13:33.633Z,8712.00
2023-03-18T11:14:33.604Z,9116.00
2023-03-18T11:15:33.636Z,9752.00
2023-03-18T11:16:34.284Z,10124.00
2023-03-18T11:17:33.606Z,10108.00
2023-03-18T11:18:33.561Z,9700.00
2023-03-18T11:19:33.568Z,9432.00
2023-03-18T11:20:33.855Z,9080.00
2023-03-18T11:21:33.587Z,8624.00
2023-03-18T11:22:33.542Z,8424.00
2023-03-18T11:23:33.511Z,8352.00
2023-03-18T11:24:33.497Z,8172.00
2023-03-18T11:25:33.485Z,7556.00
2023-03-18T11:26:33.502Z,7040.00
2023-03-18T11:27:33.461Z,7012.00
2023-03-18T11:28:33.478Z,6872.00
2023-03-18T11:29:33.457Z,6608.00
2023-03-18T11:30:37.465Z,6232.00
2023-03-18T11:31:33.518Z,6500.00
2023-03-18T11:32:33.427Z,6648.00
2023-03-18T11:33:33.405Z,6800.00
2023-03-18T11:34:33.410Z,7112.00
2023-03-18T11:35:33.406Z,7348.00
2023-03-18T11:36:33.381Z,7428.00
2023-03-18T11:37:33.359Z,7440.00
2023-03-18T11:38:33.364Z,7344.00
2023-03-18T11:39:33.330Z,7132.00
2023-03-18T11:40:33.530Z,6740.00
2023-03-18T11:41:33.323Z,6600.00
2023-03-18T11:42:33.301Z,6664.00
2023-03-18T11:43:33.289Z,6612.00
2023-03-18T11:44:33.274Z,6500.00
2023-03-18T11:45:33.296Z,6528.00
2023-03-18T11:46:33.320Z,6512.00
2023-03-18T11:47:33.246Z,6420.00
2023-03-18T11:48:33.239Z,6164.00
2023-03-18T11:49:33.227Z,6020.00
2023-03-18T11:50:33.594Z,6332.00
2023-03-18T11:51:33.232Z,6836.00
2023-03-18T11:52:33.190Z,7384.00
2023-03-18T11:53:33.191Z,7788.00
2023-03-18T11:54:33.175Z,7992.00
2023-03-18T11:55:33.536Z,8604.00
2023-03-18T11:56:33.161Z,8872.00
2023-03-18T11:57:33.133Z,8612.00
2023-03-18T11:58:33.127Z,8244.00
2023-03-18T11:59:33.128Z,8124.00
2023-03-18T12:00:33.131Z,7940.00
2023-03-18T12:01:33.159Z,7596.00
2023-03-18T12:02:33.086Z,7456.00
2023-03-18T12:03:33.080Z,7532.00
2023-03-18T12:04:33.237Z,7592.00
2023-03-18T12:05:33.407Z,7640.00
2023-03-18T12:06:33.055Z,7352.00
2023-03-18T12:07:33.040Z,6856.00
2023-03-18T12:08:33.025Z,6804.00
2023-03-18T12:09:33.042Z,7136.00
2023-03-18T12:10:33.287Z,7340.00
2023-03-18T12:11:33.139Z,7428.00
2023-03-18T12:12:33.020Z,7352.00
2023-03-18T12:13:32.967Z,7156.00
2023-03-18T12:14:32.958Z,6740.00
2023-03-18T12:15:33.148Z,6904.00
2023-03-18T12:16:33.192Z,6868.00
2023-03-18T12:17:32.945Z,6756.00
2023-03-18T12:18:32.918Z,6512.00
2023-03-18T12:19:32.930Z,6544.00
2023-03-18T12:20:33.164Z,6424.00
2023-03-18T12:21:32.939Z,6264.00
2023-03-18T12:22:32.879Z,6140.00
2023-03-18T12:23:32.865Z,5840.00
2023-03-18T12:24:32.854Z,5684.00
2023-03-18T12:25:32.909Z,5672.00
2023-03-18T12:26:32.856Z,5784.00
2023-03-18T12:27:32.823Z,5844.00
2023-03-18T12:28:32.815Z,5860.00